Time;durP1;ratioP1;P1;durP2;ratioP2;P2;SDS_P1;SDS_P2;PMS_P1;PMS_P2;Temp;Humidity;BMP_temperature;BMP_pressure;BME280_temperature;BME280_humidity;BME280_pressure;Samples;Min_cycle;Max_cycle;Signal;HPM_P1;HPM_P2
2023/03/15 00:01:38;;;;;;;6.97;1.40;;;14.30;90.30;;;;;;5106257;28;20079;-66
2023/03/15 00:04:07;;;;;;;4.38;1.20;;;;;;;;;;5112385;28;20114;-70
2023/03/15 00:06:33;;;;;;;4.38;1.23;;;14.20;90.30;;;;;;5113267;28;20055;-69
2023/03/15 00:09:00;;;;;;;2.97;1.23;;;;;;;;;;5112748;28;20102;-69
2023/03/15 00:11:27;;;;;;;6.28;1.58;;;;;;;;;;5109683;28;20396;-71
2023/03/15 00:13:53;;;;;;;4.15;1.00;;;;;;;;;;5110759;28;20482;-66
2023/03/15 00:16:19;;;;;;;2.28;1.00;;;14.20;90.20;;;;;;5103732;28;20072;-70
2023/03/15 00:18:45;;;;;;;3.50;1.20;;;14.20;86.90;;;;;;5103985;28;20127;-71
2023/03/15 00:21:12;;;;;;;5.88;1.48;;;14.20;90.10;;;;;;5109921;28;20044;-64
2023/03/15 00:23:38;;;;;;;2.17;0.95;;;;;;;;;;5112726;28;20079;-70
2023/03/15 00:26:03;;;;;;;2.85;0.80;;;14.30;90.10;;;;;;5109241;28;20116;-68
2023/03/15 00:28:29;;;;;;;4.60;1.33;;;14.30;90.20;;;;;;5110742;28;20492;-68
2023/03/15 00:31:15;;;;;;;4.28;1.10;;;14.10;86.10;;;;;;5110690;28;20067;-70
2023/03/15 00:33:41;;;;;;;5.68;1.05;;;14.30;86.80;;;;;;5110708;28;20054;-68
2023/03/15 00:36:07;;;;;;;5.22;1.48;;;13.80;90.00;;;;;;5096164;28;20047;-67
2023/03/15 00:38:33;;;;;;;4.68;1.17;;;14.50;90.20;;;;;;5113318;28;20129;-70
2023/03/15 00:41:06;;;;;;;3.05;0.98;;;;;;;;;;5110677;28;20165;-71
2023/03/15 00:43:32;;;;;;;3.45;0.98;;;14.30;90.20;;;;;;5111504;28;20043;-69
2023/03/15 00:45:58;;;;;;;4.18;0.93;;;14.20;90.20;;;;;;5093773;28;20145;-68
2023/03/15 00:48:24;;;;;;;2.80;1.08;;;14.30;90.20;;;;;;5111847;28;20486;-71
2023/03/15 00:50:49;;;;;;;5.60;1.20;;;14.40;90.20;;;;;;5085993;28;20039;-68
2023/03/15 00:53:15;;;;;;;2.70;0.90;;;14.40;90.20;;;;;;5092882;28;20044;-68
2023/03/15 00:55:41;;;;;;;4.38;1.17;;;;;;;;;;5097349;28;20043;-68
2023/03/15 00:58:07;;;;;;;4.10;0.90;;;14.20;90.10;;;;;;5110269;28;20040;-70
2023/03/15 01:00:33;;;;;;;6.20;1.35;;;14.20;90.10;;;;;;5111296;28;20050;-71
2023/03/15 01:02:59;;;;;;;6.65;1.20;;;14.30;90.20;;;;;;5112647;28;20118;-69
2023/03/15 01:05:25;;;;;;;5.47;1.27;;;14.20;90.10;;;;;;5112984;28;20047;-69
2023/03/15 01:07:51;;;;;;;4.13;1.00;;;14.30;90.20;;;;;;5109724;28;20060;-70
2023/03/15 01:10:17;;;;;;;5.97;1.10;;;14.20;88.80;;;;;;5103273;28;20063;-70
2023/03/15 01:12:43;;;;;;;6.53;1.40;;;14.20;90.20;;;;;;5112900;28;20048;-65
2023/03/15 01:15:11;;;;;;;2.70;0.90;;;13.90;90.10;;;;;;5111210;28;20044;-69
2023/03/15 01:17:37;;;;;;;4.60;1.25;;;;;;;;;;5113009;28;20044;-67
2023/03/15 01:20:04;;;;;;;4.07;0.95;;;14.10;90.10;;;;;;5108812;28;20059;-70
2023/03/15 01:22:30;;;;;;;4.22;0.93;;;14.10;90.10;;;;;;5112939;28;20051;-70
2023/03/15 01:24:55;;;;;;;3.75;1.20;;;14.10;90.10;;;;;;5107032;28;20182;-69
2023/03/15 01:27:21;;;;;;;3.28;1.30;;;14.20;90.20;;;;;;5092545;28;20036;-70
2023/03/15 01:29:47;;;;;;;4.43;1.20;;;;;;;;;;5110864;28;20054;-65
2023/03/15 01:32:13;;;;;;;8.32;1.10;;;14.20;90.20;;;;;;5112005;28;20044;-68
2023/03/15 01:34:39;;;;;;;4.15;1.25;;;;;;;;;;5112792;28;20039;-71
2023/03/15 01:37:05;;;;;;;4.32;1.08;;;13.90;90.20;;;;;;5113622;28;20051;-67
2023/03/15 01:39:31;;;;;;;2.75;1.25;;;;;;;;;;5116024;28;20044;-68
2023/03/15 01:41:57;;;;;;;5.13;1.30;;;14.10;90.20;;;;;;5110117;28;20536;-70
2023/03/15 01:44:23;;;;;;;4.38;1.10;;;;;;;;;;5095900;28;20051;-70
2023/03/15 01:46:50;;;;;;;4.95;0.90;;;14.20;90.20;;;;;;5102430;27;20438;-71
2023/03/15 01:49:30;;;;;;;3.97;1.15;;;14.00;90.20;;;;;;5116464;28;20139;-70
2023/03/15 01:51:57;;;;;;;4.18;0.93;;;14.30;90.30;;;;;;5115059;28;20502;-69
2023/03/15 01:54:29;;;;;;;4.35;1.10;;;;;;;;;;5098339;28;20101;-70
2023/03/15 01:57:15;;;;;;;3.42;1.20;;;;;;;;;;5115253;28;20040;-69
2023/03/15 01:59:48;;;;;;;3.70;1.08;;;14.00;87.50;;;;;;5103492;28;20489;-64
2023/03/15 02:02:14;;;;;;;4.93;1.05;;;;;;;;;;5105925;28;20055;-68
2023/03/15 02:04:46;;;;;;;3.00;0.90;;;13.80;90.10;;;;;;5096358;28;20131;-69
2023/03/15 02:07:12;;;;;;;5.35;1.40;;;14.40;90.30;;;;;;5098172;28;20582;-70
2023/03/15 02:09:45;;;;;;;3.90;0.75;;;;;;;;;;5080059;28;20051;-68
2023/03/15 02:12:11;;;;;;;5.90;1.10;;;14.10;90.20;;;;;;5115989;28;20043;-71
2023/03/15 02:14:37;;;;;;;3.67;1.00;;;14.10;90.20;;;;;;5114674;28;20047;-69
2023/03/15 02:17:03;;;;;;;3.83;1.10;;;14.00;90.20;;;;;;5084757;28;20413;-70
2023/03/15 02:19:35;;;;;;;2.53;0.90;;;;;;;;;;5109108;28;20043;-71
2023/03/15 02:22:29;;;;;;;3.17;0.90;;;14.30;87.80;;;;;;5096513;28;20074;-71
2023/03/15 02:25:06;;;;;;;4.13;1.02;;;14.00;87.60;;;;;;5089019;28;20150;-69
2023/03/15 02:27:35;;;;;;;2.63;0.60;;;14.10;90.30;;;;;;5114590;28;20047;-67
2023/03/15 02:30:02;;;;;;;4.47;1.08;;;13.90;90.20;;;;;;5096743;28;20048;-69
2023/03/15 02:32:28;;;;;;;2.35;0.82;;;;;;;;;;5097591;28;20050;-69
2023/03/15 02:34:54;;;;;;;4.97;0.98;;;14.20;90.30;;;;;;5113101;28;20054;-68
2023/03/15 02:37:20;;;;;;;2.80;0.85;;;;;;;;;;5111805;28;20040;-70
2023/03/15 02:39:46;;;;;;;3.00;1.02;;;;;;;;;;5115507;28;20422;-70
2023/03/15 02:42:12;;;;;;;2.05;0.90;;;14.00;90.30;;;;;;5114342;28;20036;-71
2023/03/15 02:44:38;;;;;;;6.70;1.48;;;14.00;90.30;;;;;;5114120;28;20054;-70
2023/03/15 02:47:17;;;;;;;2.45;0.90;;;14.00;87.80;;;;;;5114691;28;20550;-67
2023/03/15 02:49:45;;;;;;;4.53;1.23;;;14.10;90.30;;;;;;5094903;28;20432;-70
2023/03/15 02:52:12;;;;;;;4.10;0.93;;;;;;;;;;5093526;28;20076;-68
2023/03/15 02:54:42;;;;;;;3.72;1.17;;;;;;;;;;5097072;28;20067;-70
2023/03/15 02:57:08;;;;;;;3.50;1.00;;;14.00;90.30;;;;;;5113367;28;20056;-70
2023/03/15 02:59:34;;;;;;;3.10;0.77;;;13.90;90.30;;;;;;5113778;28;20086;-68
2023/03/15 03:02:00;;;;;;;4.97;1.00;;;14.20;90.40;;;;;;5111333;28;20075;-70
2023/03/15 03:04:26;;;;;;;4.70;1.08;;;;;;;;;;5115028;28;20092;-70
2023/03/15 03:06:52;;;;;;;3.33;0.70;;;;;;;;;;5108984;28;20181;-69
2023/03/15 03:09:18;;;;;;;4.22;0.98;;;13.70;90.30;;;;;;5113254;28;20048;-70
2023/03/15 03:11:44;;;;;;;5.03;1.15;;;14.30;90.40;;;;;;5114561;28;20039;-68
2023/03/15 03:14:12;;;;;;;3.20;0.85;;;13.90;90.30;;;;;;5095421;28;20046;-70
2023/03/15 03:16:39;;;;;;;2.80;0.82;;;14.10;90.30;;;;;;5113402;28;20118;-71
2023/03/15 03:19:04;;;;;;;3.65;1.10;;;13.80;90.30;;;;;;5113666;28;20046;-69
2023/03/15 03:21:30;;;;;;;4.20;0.90;;;14.10;90.30;;;;;;5094959;28;20126;-71
2023/03/15 03:23:56;;;;;;;5.35;1.70;;;14.20;90.40;;;;;;5110981;28;20032;-68
2023/03/15 03:26:26;;;;;;;4.53;0.85;;;14.00;90.30;;;;;;5106253;28;20552;-71
2023/03/15 03:28:52;;;;;;;4.60;1.20;;;;;;;;;;5112468;28;20439;-70
2023/03/15 03:31:19;;;;;;;4.97;1.10;;;;;;;;;;5112201;28;20100;-70
2023/03/15 03:33:45;;;;;;;3.25;0.75;;;14.00;90.30;;;;;;5114402;28;20443;-70
2023/03/15 03:36:12;;;;;;;5.18;1.02;;;13.90;90.30;;;;;;5113435;28;20067;-70
2023/03/15 03:38:40;;;;;;;3.13;1.00;;;13.80;87.50;;;;;;5112913;28;20041;-70
2023/03/15 03:41:06;;;;;;;6.03;1.30;;;14.20;90.30;;;;;;5112695;28;20043;-70
2023/03/15 03:43:32;;;;;;;3.95;1.25;;;14.00;90.30;;;;;;5113929;28;20404;-70
2023/03/15 03:45:58;;;;;;;5.38;0.90;;;13.90;90.20;;;;;;5113068;28;20046;-70
2023/03/15 03:48:24;;;;;;;3.88;1.15;;;;;;;;;;5112283;28;20096;-70
2023/03/15 03:50:50;;;;;;;3.50;1.00;;;;;;;;;;5113443;28;20075;-63
2023/03/15 03:53:16;;;;;;;2.33;0.77;;;13.80;90.30;;;;;;5112555;28;20043;-69
2023/03/15 03:55:41;;;;;;;6.10;1.10;;;14.00;90.30;;;;;;5113583;28;20040;-70
2023/03/15 03:58:08;;;;;;;3.38;1.02;;;13.80;90.20;;;;;;5109010;28;20081;-71
2023/03/15 04:00:34;;;;;;;3.58;1.00;;;;;;;;;;5107103;28;20154;-63
2023/03/15 04:03:00;;;;;;;4.43;0.90;;;13.80;90.00;;;;;;5112391;28;20149;-69
2023/03/15 04:05:27;;;;;;;3.78;1.00;;;13.70;90.20;;;;;;5113827;28;20043;-69
2023/03/15 04:07:53;;;;;;;4.80;1.00;;;14.10;90.30;;;;;;5090646;28;20071;-69
2023/03/15 04:10:25;;;;;;;3.47;1.20;;;13.90;86.80;;;;;;5093061;28;20040;-68
2023/03/15 04:12:55;;;;;;;5.93;1.27;;;;;;;;;;5090878;28;20044;-70
2023/03/15 04:15:23;;;;;;;4.82;1.23;;;14.00;89.30;;;;;;5086403;28;20052;-69
2023/03/15 04:17:54;;;;;;;4.45;1.30;;;14.00;90.40;;;;;;5077899;28;20032;-66
2023/03/15 04:20:25;;;;;;;2.95;0.88;;;14.00;86.50;;;;;;5090636;28;20052;-70
2023/03/15 04:22:51;;;;;;;5.25;0.98;;;;;;;;;;5092826;28;20044;-67
2023/03/15 04:25:20;;;;;;;5.28;1.30;;;14.00;90.30;;;;;;5089783;28;20075;-67
2023/03/15 04:27:57;;;;;;;5.47;1.20;;;13.90;90.20;;;;;;5091872;28;20082;-65
2023/03/15 04:30:26;;;;;;;6.95;1.33;;;13.90;90.10;;;;;;5091855;28;20126;-65
2023/03/15 04:32:57;;;;;;;5.13;1.10;;;13.80;90.10;;;;;;5081453;28;20401;-66
2023/03/15 04:35:26;;;;;;;4.50;1.20;;;13.60;86.60;;;;;;5089165;28;20048;-70
2023/03/15 04:37:52;;;;;;;3.55;1.00;;;13.50;89.80;;;;;;5092078;28;20135;-68
2023/03/15 04:40:18;;;;;;;5.18;1.50;;;;;;;;;;5091659;28;20139;-68
2023/03/15 04:42:44;;;;;;;5.00;1.10;;;13.60;90.00;;;;;;5092366;28;20079;-67
2023/03/15 04:45:10;;;;;;;4.75;1.30;;;13.60;89.80;;;;;;5091641;28;20079;-69
2023/03/15 04:47:36;;;;;;;2.97;0.95;;;;;;;;;;5091482;28;20036;-71
2023/03/15 04:50:02;;;;;;;4.10;1.10;;;13.80;90.00;;;;;;5081470;28;20444;-71
2023/03/15 04:52:28;;;;;;;4.22;1.40;;;13.60;89.90;;;;;;5090460;28;20059;-69
2023/03/15 04:54:54;;;;;;;5.78;1.25;;;13.60;87.20;;;;;;5090711;28;20033;-68
2023/03/15 04:57:19;;;;;;;5.53;1.33;;;13.30;89.90;;;;;;5091224;28;20083;-70
2023/03/15 04:59:46;;;;;;;2.60;0.95;;;;;;;;;;5089911;28;20083;-66
2023/03/15 05:02:12;;;;;;;5.10;1.35;;;;;;;;;;5078730;28;20055;-70
2023/03/15 05:04:37;;;;;;;4.22;0.90;;;13.50;88.30;;;;;;5091773;28;20449;-68
2023/03/15 05:07:03;;;;;;;6.10;1.27;;;13.50;90.00;;;;;;5085424;28;20087;-70
2023/03/15 05:09:36;;;;;;;3.50;0.90;;;13.50;90.00;;;;;;5092756;28;20040;-72
2023/03/15 05:12:03;;;;;;;3.50;1.27;;;13.60;86.90;;;;;;5112765;28;20047;-71
2023/03/15 05:14:29;;;;;;;3.70;1.20;;;13.40;90.00;;;;;;5098848;28;20054;-65
2023/03/15 05:16:58;;;;;;;4.28;1.35;;;;;;;;;;5096268;28;20477;-68
2023/03/15 05:19:25;;;;;;;3.03;1.25;;;13.70;90.00;;;;;;5117041;28;20067;-70
2023/03/15 05:21:51;;;;;;;2.38;0.80;;;;;;;;;;5115595;28;20552;-70
2023/03/15 05:24:16;;;;;;;6.53;1.58;;;13.80;90.10;;;;;;5115262;28;20481;-70
2023/03/15 05:26:45;;;;;;;6.30;1.27;;;13.70;90.00;;;;;;5113710;28;20036;-69
2023/03/15 05:29:12;;;;;;;6.05;1.23;;;13.80;90.00;;;;;;5114378;28;20096;-70
2023/03/15 05:31:38;;;;;;;4.50;1.60;;;13.70;90.00;;;;;;5114858;28;20039;-67
2023/03/15 05:34:04;;;;;;;3.85;0.98;;;13.90;86.50;;;;;;5116463;28;20055;-70
2023/03/15 05:36:30;;;;;;;5.60;1.25;;;13.80;90.10;;;;;;5115134;28;20489;-68
2023/03/15 05:38:56;;;;;;;2.03;0.73;;;13.80;90.10;;;;;;5114745;28;20036;-70
2023/03/15 05:41:22;;;;;;;4.18;0.90;;;13.60;89.10;;;;;;5108458;28;20126;-70
2023/03/15 05:43:49;;;;;;;5.50;1.20;;;;;;;;;;5115618;28;20093;-72
2023/03/15 05:46:15;;;;;;;3.55;1.00;;;;;;;;;;5116562;28;20459;-71
2023/03/15 05:48:40;;;;;;;4.18;0.90;;;13.70;90.00;;;;;;5115083;28;20093;-70
2023/03/15 05:51:07;;;;;;;3.58;1.15;;;;;;;;;;5115125;28;20047;-70
2023/03/15 05:53:33;;;;;;;2.17;0.77;;;;;;;;;;5116418;28;20043;-68
2023/03/15 05:55:59;;;;;;;4.07;1.10;;;13.70;90.10;;;;;;5114221;28;20419;-67
2023/03/15 05:58:25;;;;;;;3.58;1.00;;;;;;;;;;5101284;28;20046;-70
2023/03/15 06:00:51;;;;;;;2.97;0.98;;;;;;;;;;5111044;28;20046;-67
2023/03/15 06:03:17;;;;;;;4.07;1.20;;;13.70;90.00;;;;;;5114230;28;20069;-69
2023/03/15 06:05:42;;;;;;;3.33;1.02;;;13.80;90.00;;;;;;5115168;28;20040;-68
2023/03/15 06:08:08;;;;;;;5.90;1.15;;;13.80;90.00;;;;;;5115682;28;20493;-71
2023/03/15 06:10:34;;;;;;;4.03;1.10;;;13.60;90.00;;;;;;5115210;28;20051;-70
2023/03/15 06:13:00;;;;;;;3.15;0.80;;;;;;;;;;5095503;28;20132;-71
2023/03/15 06:15:26;;;;;;;5.30;1.08;;;;;;;;;;5099818;28;20055;-70
2023/03/15 06:17:52;;;;;;;4.43;1.02;;;13.80;90.00;;;;;;5095454;28;20396;-69
2023/03/15 06:20:18;;;;;;;2.30;0.73;;;13.90;90.00;;;;;;5095138;28;20040;-69
2023/03/15 06:22:44;;;;;;;5.47;0.95;;;13.90;87.90;;;;;;5094758;28;20044;-63
2023/03/15 06:25:10;;;;;;;5.43;1.65;;;;;;;;;;5095540;28;20070;-69
2023/03/15 06:27:36;;;;;;;3.25;0.95;;;;;;;;;;5095018;28;20052;-71
2023/03/15 06:30:02;;;;;;;4.80;1.23;;;13.60;89.50;;;;;;5095292;28;20213;-71
2023/03/15 06:32:28;;;;;;;3.65;0.90;;;14.30;89.70;;;;;;5095472;28;20493;-71
2023/03/15 06:34:54;;;;;;;6.35;1.27;;;14.10;89.40;;;;;;5094896;28;20123;-71
2023/03/15 06:37:20;;;;;;;6.55;1.33;;;14.10;89.30;;;;;;5095128;28;20040;-63
2023/03/15 06:39:47;;;;;;;5.55;1.33;;;;;;;;;;5094809;28;20560;-71
2023/03/15 06:42:13;;;;;;;3.88;1.10;;;;;;;;;;5094996;28;20044;-69
2023/03/15 06:44:40;;;;;;;4.18;1.40;;;;;;;;;;5095005;28;20071;-72
2023/03/15 06:47:07;;;;;;;3.88;0.95;;;14.20;89.10;;;;;;5094627;28;20062;-64
2023/03/15 06:49:32;;;;;;;2.08;0.75;;;14.30;88.90;;;;;;5095180;28;20060;-67
2023/03/15 06:51:58;;;;;;;4.15;1.10;;;14.20;89.00;;;;;;5094892;28;20047;-70
2023/03/15 06:54:25;;;;;;;3.08;0.85;;;;;;;;;;5094849;28;20126;-71
2023/03/15 06:56:51;;;;;;;5.07;1.48;;;13.80;88.80;;;;;;5104546;28;20040;-73
2023/03/15 06:59:16;;;;;;;3.50;1.23;;;14.10;89.00;;;;;;5114980;28;20055;-75
2023/03/15 07:01:43;;;;;;;4.03;1.40;;;;;;;;;;5115053;28;20043;-75
2023/03/15 07:04:09;;;;;;;5.00;1.50;;;;;;;;;;5097017;28;20444;-74
2023/03/15 07:06:36;;;;;;;4.95;1.08;;;;;;;;;;5078531;28;20060;-72
2023/03/15 07:09:02;;;;;;;4.07;0.98;;;14.20;88.80;;;;;;5094556;28;20085;-75
2023/03/15 07:11:28;;;;;;;5.20;1.38;;;14.20;87.80;;;;;;5076076;28;20102;-74
2023/03/15 07:13:54;;;;;;;4.55;1.27;;;14.40;88.80;;;;;;5107592;28;20071;-73
2023/03/15 07:16:20;;;;;;;5.07;1.00;;;14.50;88.70;;;;;;5096081;28;20104;-73
2023/03/15 07:18:46;;;;;;;4.93;1.15;;;14.60;88.60;;;;;;5114760;28;20042;-73
2023/03/15 07:21:11;;;;;;;5.88;1.02;;;14.80;86.10;;;;;;5114614;28;20040;-63
2023/03/15 07:23:37;;;;;;;3.17;0.98;;;;;;;;;;5096541;28;20044;-63
2023/03/15 07:26:04;;;;;;;4.97;1.38;;;;;;;;;;5094214;28;20032;-75
2023/03/15 07:28:29;;;;;;;4.57;1.02;;;14.70;88.30;;;;;;5093694;28;20048;-66
2023/03/15 07:31:00;;;;;;;7.25;1.23;;;14.50;87.40;;;;;;5093820;28;20048;-68
2023/03/15 07:33:27;;;;;;;4.07;1.30;;;14.80;87.90;;;;;;5093102;28;20131;-68
2023/03/15 07:35:52;;;;;;;3.80;1.40;;;15.00;87.70;;;;;;5093649;28;20044;-70
2023/03/15 07:38:19;;;;;;;4.28;1.10;;;15.20;87.60;;;;;;5092449;28;20094;-72
2023/03/15 07:40:45;;;;;;;6.65;1.38;;;15.10;87.30;;;;;;5094511;28;20055;-60
2023/03/15 07:43:11;;;;;;;5.20;1.58;;;;;;;;;;5093813;28;20040;-65
2023/03/15 07:45:37;;;;;;;4.72;1.10;;;;;;;;;;5093588;28;20086;-62
2023/03/15 07:48:03;;;;;;;5.18;1.50;;;15.80;86.90;;;;;;5111315;28;20043;-62
2023/03/15 07:50:29;;;;;;;3.00;1.02;;;15.80;86.60;;;;;;5109443;28;20040;-62
2023/03/15 07:52:55;;;;;;;6.20;1.38;;;;;;;;;;5110485;28;20389;-65
2023/03/15 07:55:21;;;;;;;4.70;1.40;;;15.90;86.30;;;;;;5112480;28;20040;-61
2023/03/15 07:57:47;;;;;;;4.60;1.05;;;;;;;;;;5093563;28;20047;-62
2023/03/15 08:00:14;;;;;;;3.67;1.10;;;16.00;85.60;;;;;;5111818;28;20050;-63
2023/03/15 08:02:41;;;;;;;3.47;1.10;;;;;;;;;;5110905;28;20119;-62
2023/03/15 08:05:07;;;;;;;4.22;1.33;;;16.00;85.60;;;;;;5112042;28;20157;-64
2023/03/15 08:07:34;;;;;;;4.53;1.30;;;16.50;85.70;;;;;;5112216;28;20051;-65
2023/03/15 08:10:00;;;;;;;4.95;1.40;;;16.40;85.50;;;;;;5111860;28;20059;-65
2023/03/15 08:12:26;;;;;;;5.25;1.30;;;;;;;;;;5112809;28;20058;-65
2023/03/15 08:14:52;;;;;;;4.03;1.10;;;;;;;;;;5110235;28;20391;-66
2023/03/15 08:17:18;;;;;;;4.15;1.25;;;16.70;85.20;;;;;;5112682;28;20044;-65
2023/03/15 08:19:44;;;;;;;4.57;1.30;;;16.80;85.20;;;;;;5112411;28;20061;-64
2023/03/15 08:22:10;;;;;;;5.75;1.20;;;16.90;85.10;;;;;;5110960;28;20036;-64
2023/03/15 08:24:36;;;;;;;4.30;1.48;;;;;;;;;;5112364;28;20463;-65
2023/03/15 08:27:02;;;;;;;5.10;1.70;;;16.90;83.00;;;;;;5112134;28;20039;-66
2023/03/15 08:29:28;;;;;;;5.45;1.40;;;;;;;;;;5110058;28;20044;-64
2023/03/15 08:31:54;;;;;;;6.05;1.10;;;17.00;84.90;;;;;;5111387;28;20080;-66
2023/03/15 08:34:20;;;;;;;7.07;1.50;;;;;;;;;;5092870;28;20405;-65
2023/03/15 08:36:46;;;;;;;4.05;1.30;;;17.20;84.90;;;;;;5112767;28;20104;-64
2023/03/15 08:39:13;;;;;;;7.25;1.83;;;;;;;;;;5113006;28;20043;-65
2023/03/15 08:41:39;;;;;;;4.53;1.30;;;17.30;84.80;;;;;;5109504;28;20047;-69
2023/03/15 08:44:05;;;;;;;6.22;1.48;;;17.40;84.80;;;;;;5106857;28;20388;-73
2023/03/15 08:46:32;;;;;;;6.15;1.30;;;;;;;;;;5110141;28;20108;-71
2023/03/15 08:48:58;;;;;;;6.35;1.30;;;;;;;;;;5108492;28;20048;-63
2023/03/15 08:51:25;;;;;;;6.13;1.23;;;17.40;84.50;;;;;;5107933;28;20036;-64
2023/03/15 08:53:51;;;;;;;5.97;1.50;;;17.50;84.50;;;;;;5099115;28;20040;-68
2023/03/15 08:56:18;;;;;;;5.25;1.40;;;17.60;84.50;;;;;;5111757;28;20104;-69
2023/03/15 08:58:44;;;;;;;4.78;1.33;;;;;;;;;;5110647;28;20036;-69
2023/03/15 09:01:13;;;;;;;5.05;1.52;;;;;;;;;;5110563;28;20490;-70
2023/03/15 09:03:41;;;;;;;7.57;1.63;;;17.60;84.30;;;;;;5111273;28;20433;-62
2023/03/15 09:06:07;;;;;;;6.93;1.40;;;17.50;84.30;;;;;;5111169;28;20132;-71
2023/03/15 09:08:33;;;;;;;7.32;1.67;;;17.60;84.30;;;;;;5112581;28;20514;-70
2023/03/15 09:11:00;;;;;;;2.75;1.00;;;17.50;80.90;;;;;;5109558;28;20130;-69
2023/03/15 09:13:26;;;;;;;7.55;1.70;;;17.50;84.30;;;;;;5112980;28;20415;-63
2023/03/15 09:15:52;;;;;;;5.85;1.63;;;17.80;84.30;;;;;;5103006;28;20390;-64
2023/03/15 09:18:18;;;;;;;5.90;1.48;;;17.20;84.10;;;;;;5100119;28;20040;-70
2023/03/15 09:20:44;;;;;;;4.75;1.50;;;17.50;81.70;;;;;;5109943;28;20511;-67
2023/03/15 09:23:10;;;;;;;5.60;1.52;;;17.50;84.20;;;;;;5106810;28;20044;-67
2023/03/15 09:25:36;;;;;;;5.53;1.52;;;17.50;84.20;;;;;;5111205;28;20047;-67
2023/03/15 09:28:02;;;;;;;4.13;1.27;;;17.50;84.30;;;;;;5112707;28;20040;-68
2023/03/15 09:30:28;;;;;;;4.38;1.85;;;17.70;84.30;;;;;;5107334;28;20083;-65
2023/03/15 09:32:55;;;;;;;5.63;1.50;;;;;;;;;;5110285;28;20097;-67
2023/03/15 09:35:20;;;;;;;6.05;1.50;;;17.70;84.30;;;;;;5090430;28;20062;-66
2023/03/15 09:37:47;;;;;;;5.88;1.52;;;17.80;81.10;;;;;;5107804;28;20044;-66
2023/03/15 09:40:21;;;;;;;5.03;1.60;;;17.70;81.70;;;;;;5106086;28;20489;-63
2023/03/15 09:43:02;;;;;;;3.53;1.20;;;17.60;84.40;;;;;;5075139;28;20050;-62
2023/03/15 09:46:06;;;;;;;5.43;1.92;;;17.40;80.20;;;;;;5106690;28;20075;-62
2023/03/15 09:49:04;;;;;;;6.82;2.00;;;17.70;80.40;;;;;;5110793;28;20400;-63
2023/03/15 09:51:50;;;;;;;6.28;1.52;;;17.60;80.30;;;;;;5108863;28;20116;-63
2023/03/15 09:54:28;;;;;;;5.32;1.30;;;17.70;84.40;;;;;;5106648;28;20112;-62
2023/03/15 09:57:01;;;;;;;4.45;1.23;;;;;;;;;;5088140;28;20065;-61
2023/03/15 09:59:42;;;;;;;5.00;1.30;;;17.70;81.80;;;;;;5094775;28;20069;-61
2023/03/15 10:02:23;;;;;;;3.67;1.20;;;17.50;82.60;;;;;;5084250;28;20069;-63
2023/03/15 10:04:51;;;;;;;4.93;1.50;;;17.60;81.40;;;;;;5112075;28;20728;-61
2023/03/15 10:07:17;;;;;;;5.97;1.65;;;17.70;84.40;;;;;;5078548;28;20048;-73
2023/03/15 10:09:43;;;;;;;4.85;1.55;;;17.50;84.20;;;;;;5110137;28;20040;-73
2023/03/15 10:12:13;;;;;;;4.22;1.17;;;17.60;79.80;;;;;;5112087;28;20035;-64
2023/03/15 10:15:06;;;;;;;7.07;1.77;;;17.50;81.60;;;;;;5107123;28;20449;-77
2023/03/15 10:17:43;;;;;;;5.13;1.73;;;17.70;81.50;;;;;;5098551;28;20071;-69
2023/03/15 10:20:11;;;;;;;5.47;1.40;;;17.50;84.40;;;;;;5099126;28;20046;-70
2023/03/15 10:22:40;;;;;;;4.97;1.52;;;;;;;;;;5114864;28;20048;-71
2023/03/15 10:25:26;;;;;;;5.50;1.40;;;17.60;80.40;;;;;;5096112;28;20039;-76
2023/03/15 10:27:53;;;;;;;3.80;1.25;;;17.40;81.40;;;;;;5114791;28;20047;-73
2023/03/15 10:30:24;;;;;;;3.80;1.15;;;17.40;82.00;;;;;;5088630;28;20039;-65
2023/03/15 10:32:59;;;;;;;5.18;1.52;;;17.50;79.70;;;;;;5099886;28;20039;-75
2023/03/15 10:35:25;;;;;;;6.97;1.33;;;17.40;84.30;;;;;;5092384;28;20528;-71
2023/03/15 10:37:50;;;;;;;3.42;1.10;;;17.60;84.60;;;;;;5114697;28;20079;-77
2023/03/15 10:40:17;;;;;;;5.07;1.38;;;;;;;;;;5114555;28;20078;-77
2023/03/15 10:42:44;;;;;;;4.82;1.30;;;17.50;84.60;;;;;;5096565;28;20055;-66
2023/03/15 10:45:11;;;;;;;3.38;1.20;;;17.60;84.40;;;;;;5108736;28;20489;-64
2023/03/15 10:47:42;;;;;;;3.90;1.30;;;17.60;84.50;;;;;;5073205;28;20520;-64
2023/03/15 10:50:09;;;;;;;4.22;1.45;;;17.70;81.40;;;;;;5109970;28;20055;-66
2023/03/15 10:52:38;;;;;;;6.68;1.45;;;17.10;84.30;;;;;;5111063;28;20511;-62
2023/03/15 10:55:17;;;;;;;7.07;1.50;;;17.10;84.30;;;;;;5113625;28;20043;-62
2023/03/15 10:57:58;;;;;;;4.85;1.30;;;17.20;81.80;;;;;;5114176;28;20093;-62
2023/03/15 11:00:35;;;;;;;3.65;1.23;;;17.50;81.90;;;;;;5111387;28;20381;-64
2023/03/15 11:03:05;;;;;;;5.65;1.65;;;17.40;81.50;;;;;;5108481;28;20118;-66
2023/03/15 11:05:42;;;;;;;4.32;1.40;;;17.50;80.40;;;;;;5110261;28;20059;-74
2023/03/15 11:08:16;;;;;;;5.05;1.27;;;17.40;84.60;;;;;;5110124;28;20055;-78
2023/03/15 11:10:43;;;;;;;3.95;1.25;;;17.50;84.60;;;;;;5111894;28;20051;-62
2023/03/15 11:13:25;;;;;;;4.68;1.40;;;17.40;84.70;;;;;;5113882;28;20050;-63
2023/03/15 11:16:13;;;;;;;5.53;1.40;;;17.30;80.30;;;;;;5111561;28;20054;-63
2023/03/15 11:18:43;;;;;;;5.93;1.40;;;17.50;80.50;;;;;;5104454;28;20305;-62
2023/03/15 11:21:13;;;;;;;4.50;1.10;;;17.20;80.00;;;;;;5085265;28;20047;-62
2023/03/15 11:23:42;;;;;;;5.18;1.33;;;17.40;81.80;;;;;;5113531;28;20054;-63
2023/03/15 11:26:21;;;;;;;5.38;1.38;;;17.60;81.90;;;;;;5112549;28;20058;-62
2023/03/15 11:28:55;;;;;;;8.02;1.85;;;17.50;81.70;;;;;;5096623;28;20434;-62
2023/03/15 11:31:23;;;;;;;10.98;1.58;;;17.50;83.90;;;;;;5099090;28;20044;-67
2023/03/15 11:33:53;;;;;;;7.03;1.38;;;17.40;79.50;;;;;;5112135;28;20096;-66
2023/03/15 11:36:20;;;;;;;7.03;2.08;;;17.50;84.00;;;;;;5112412;28;20470;-64
2023/03/15 11:38:46;;;;;;;4.68;1.60;;;17.40;83.10;;;;;;5071021;28;20044;-69
2023/03/15 11:41:35;;;;;;;4.07;1.15;;;17.50;84.00;;;;;;5094263;28;20062;-66
2023/03/15 11:44:26;;;;;;;7.05;2.00;;;17.60;80.00;;;;;;5098410;28;20087;-65
2023/03/15 11:46:54;;;;;;;5.68;1.30;;;17.60;81.20;;;;;;5113668;28;20035;-65
2023/03/15 11:49:20;;;;;;;4.15;1.13;;;;;;;;;;5094706;28;20057;-66
2023/03/15 11:51:46;;;;;;;3.95;1.50;;;;;;;;;;5112374;28;20061;-65
2023/03/15 11:54:18;;;;;;;5.60;1.10;;;17.70;79.60;;;;;;5095879;28;20393;-65
2023/03/15 11:56:46;;;;;;;5.32;1.23;;;17.80;84.20;;;;;;5077122;28;20443;-68
2023/03/15 11:59:18;;;;;;;4.50;1.25;;;17.60;84.00;;;;;;5110230;28;20484;-65
2023/03/15 12:01:49;;;;;;;6.93;1.30;;;17.50;79.60;;;;;;5060401;28;20090;-66
2023/03/15 12:04:24;;;;;;;5.28;1.05;;;17.50;80.00;;;;;;5079726;28;20040;-66
2023/03/15 12:06:54;;;;;;;6.20;1.58;;;17.70;84.40;;;;;;5102137;28;20104;-66
2023/03/15 12:09:32;;;;;;;6.13;1.40;;;17.60;84.40;;;;;;5093976;28;20051;-71
2023/03/15 12:12:23;;;;;;;6.57;1.30;;;17.60;81.50;;;;;;5112098;28;20044;-70
2023/03/15 12:15:14;;;;;;;5.32;1.48;;;17.50;80.30;;;;;;5108062;28;20435;-65
2023/03/15 12:17:59;;;;;;;5.95;1.77;;;;;;;;;;5112213;28;20546;-65
2023/03/15 12:20:59;;;;;;;7.32;1.80;;;17.90;81.90;;;;;;5109831;28;20442;-66
2023/03/15 12:23:34;;;;;;;6.85;2.20;;;17.60;81.40;;;;;;5109627;28;20039;-66
2023/03/15 12:26:04;;;;;;;5.70;1.65;;;17.70;80.10;;;;;;5110048;28;20115;-66
2023/03/15 12:28:51;;;;;;;5.18;1.60;;;17.90;81.90;;;;;;5104997;28;20072;-70
2023/03/15 12:31:18;;;;;;;7.95;1.70;;;;;;;;;;5108088;28;20047;-67
2023/03/15 12:33:57;;;;;;;7.72;2.15;;;17.80;80.20;;;;;;5110047;28;21551;-66
2023/03/15 12:36:30;;;;;;;9.15;2.05;;;17.90;79.90;;;;;;5112051;28;20422;-66
2023/03/15 12:39:20;;;;;;;5.93;1.80;;;17.80;81.80;;;;;;5094181;28;20045;-70
2023/03/15 12:41:50;;;;;;;5.15;1.80;;;17.70;84.50;;;;;;5103326;28;20416;-71
2023/03/15 12:44:24;;;;;;;7.40;2.03;;;17.90;80.10;;;;;;5112593;28;20047;-64
2023/03/15 12:46:50;;;;;;;6.53;1.88;;;17.80;81.90;;;;;;5100243;28;20035;-66
2023/03/15 12:49:22;;;;;;;6.65;1.80;;;18.00;80.20;;;;;;5092830;28;20083;-65
2023/03/15 12:51:56;;;;;;;5.88;1.70;;;18.00;79.90;;;;;;5110201;28;20507;-66
2023/03/15 12:54:23;;;;;;;5.47;1.95;;;17.90;84.50;;;;;;5109835;28;20052;-75
2023/03/15 12:56:55;;;;;;;7.45;2.20;;;17.90;81.40;;;;;;5091617;28;20058;-63
2023/03/15 12:59:31;;;;;;;6.28;2.05;;;17.70;80.10;;;;;;5098622;28;20050;-68
2023/03/15 13:01:58;;;;;;;6.82;2.25;;;18.00;84.40;;;;;;5095340;28;20052;-70
2023/03/15 13:04:26;;;;;;;11.38;2.50;;;18.20;81.60;;;;;;5112432;28;20432;-72
2023/03/15 13:07:09;;;;;;;10.38;2.33;;;18.00;84.60;;;;;;5111654;28;20052;-65
2023/03/15 13:09:40;;;;;;;;;;;18.00;81.80;;;;;;5111437;28;20416;-71
2023/03/15 13:12:19;;;;;;;9.50;1.90;;;18.20;80.30;;;;;;5112097;28;19923;-72
2023/03/15 13:14:48;;;;;;;6.55;1.70;;;18.00;82.20;;;;;;5110257;28;20054;-72
2023/03/15 13:17:32;;;;;;;8.90;1.60;;;18.20;84.40;;;;;;5092532;28;20052;-63
2023/03/15 13:20:22;;;;;;;10.95;1.95;;;18.20;80.10;;;;;;5104364;28;20549;-71
2023/03/15 13:23:05;;;;;;;11.82;2.28;;;18.10;81.60;;;;;;5111563;28;20040;-71